createdAt,value
2022-08-11T00:01:28.283Z,24.90
2022-08-11T00:04:01.886Z,24.90
2022-08-11T00:06:37.546Z,25.10
2022-08-11T00:09:09.010Z,25.30
2022-08-11T00:11:49.446Z,25.50
2022-08-11T00:14:36.809Z,25.40
2022-08-11T00:17:13.457Z,25.60
2022-08-11T00:20:12.252Z,25.60
2022-08-11T00:22:34.844Z,24.50
2022-08-11T00:25:16.556Z,24.80
2022-08-11T00:27:44.363Z,25.00
2022-08-11T00:30:13.535Z,25.10
2022-08-11T00:32:44.163Z,25.40
2022-08-11T00:35:53.963Z,24.80
2022-08-11T00:38:06.926Z,25.00
2022-08-11T00:40:44.209Z,24.70
2022-08-11T00:43:46.271Z,24.70
2022-08-11T00:46:30.268Z,24.80
2022-08-11T00:49:08.823Z,24.90
2022-08-11T00:52:19.739Z,25.00
2022-08-11T00:55:07.382Z,25.20
2022-08-11T00:57:51.507Z,24.90
2022-08-11T01:00:23.980Z,25.00
2022-08-11T01:03:36.173Z,24.80
2022-08-11T01:06:40.003Z,24.50
2022-08-11T01:09:28.087Z,25.00
2022-08-11T01:12:24.504Z,24.80
2022-08-11T01:15:10.137Z,25.10
2022-08-11T01:17:58.596Z,25.20
2022-08-11T01:21:05.987Z,25.20
2022-08-11T01:23:38.664Z,24.80
2022-08-11T01:26:26.442Z,24.50
2022-08-11T01:29:30.409Z,24.30
2022-08-11T01:32:41.234Z,24.70
2022-08-11T01:35:19.840Z,24.80
2022-08-11T01:38:09.826Z,24.90
2022-08-11T01:41:04.237Z,25.10
2022-08-11T01:44:12.538Z,25.00
2022-08-11T01:47:04.296Z,25.00
2022-08-11T01:50:09.917Z,24.70
2022-08-11T01:53:08.320Z,24.90
2022-08-11T01:56:04.770Z,25.60
2022-08-11T01:58:44.460Z,25.10
2022-08-11T02:01:37.709Z,25.40
2022-08-11T02:04:12.964Z,25.50
2022-08-11T02:06:56.129Z,25.50
2022-08-11T02:09:51.763Z,25.40
2022-08-11T02:12:18.695Z,25.40
2022-08-11T02:15:09.371Z,25.50
2022-08-11T02:18:06.087Z,24.70
2022-08-11T02:21:07.061Z,25.10
2022-08-11T02:24:04.976Z,25.10
2022-08-11T02:26:45.947Z,24.80
2022-08-11T02:29:24.793Z,25.50
2022-08-11T02:32:44.120Z,25.50
2022-08-11T02:35:26.700Z,25.50
2022-08-11T02:38:16.815Z,25.80
2022-08-11T02:40:51.567Z,26.20
2022-08-11T02:43:39.887Z,26.00
2022-08-11T02:46:37.767Z,26.30
2022-08-11T02:49:31.802Z,26.60
2022-08-11T02:52:09.649Z,27.50
2022-08-11T02:54:42.058Z,28.30
2022-08-11T02:57:21.023Z,27.90
2022-08-11T03:00:00.737Z,28.30
2022-08-11T03:02:48.729Z,29.00
2022-08-11T03:05:20.192Z,29.50
2022-08-11T03:08:05.251Z,29.60
2022-08-11T03:10:44.206Z,29.60
2022-08-11T03:13:44.000Z,28.90
2022-08-11T03:16:40.331Z,28.80
2022-08-11T03:19:28.639Z,27.60
2022-08-11T03:22:22.175Z,27.80
2022-08-11T03:25:13.240Z,27.30
2022-08-11T03:27:52.471Z,26.90
2022-08-11T03:30:26.971Z,26.60
2022-08-11T03:33:48.563Z,26.40
2022-08-11T03:37:01.732Z,26.70
2022-08-11T03:39:55.448Z,26.50
2022-08-11T03:42:44.941Z,26.60
2022-08-11T03:45:20.658Z,26.30
2022-08-11T03:48:06.983Z,26.20
2022-08-11T03:50:56.160Z,26.20
2022-08-11T03:53:59.801Z,25.90
2022-08-11T03:56:45.210Z,26.10
2022-08-11T03:59:30.401Z,26.30
2022-08-11T04:02:28.637Z,26.40
2022-08-11T04:05:33.397Z,26.50
2022-08-11T04:08:25.502Z,26.40
2022-08-11T04:11:36.759Z,26.40
2022-08-11T04:14:55.301Z,26.50
2022-08-11T04:17:49.044Z,26.40
2022-08-11T04:20:37.011Z,26.50
2022-08-11T04:24:34.972Z,26.50
2022-08-11T04:26:34.287Z,26.70
2022-08-11T04:29:36.167Z,26.90
2022-08-11T04:33:06.052Z,26.80
2022-08-11T04:36:05.163Z,27.00
2022-08-11T04:38:34.878Z,27.40
2022-08-11T04:41:59.730Z,27.20
2022-08-11T04:44:45.330Z,27.00
2022-08-11T04:48:05.051Z,26.80
2022-08-11T04:51:16.852Z,26.50
2022-08-11T04:54:34.508Z,26.60
2022-08-11T04:57:30.189Z,26.50
2022-08-11T05:00:29.201Z,26.40
2022-08-11T05:03:08.169Z,26.90
2022-08-11T05:05:37.594Z,26.40
2022-08-11T05:08:25.349Z,26.30
2022-08-11T05:10:58.015Z,26.20
2022-08-11T05:13:50.710Z,26.10
2022-08-11T05:16:42.818Z,26.20
2022-08-11T05:19:38.045Z,26.30
2022-08-11T05:22:27.308Z,26.10
2022-08-11T05:26:43.388Z,26.20
2022-08-11T05:28:57.127Z,26.10
2022-08-11T05:31:49.025Z,26.20
2022-08-11T05:34:52.728Z,26.60
2022-08-11T05:37:27.233Z,26.50
2022-08-11T05:40:19.717Z,26.50
2022-08-11T05:43:12.023Z,26.50
2022-08-11T05:46:03.827Z,26.50
2022-08-11T05:48:55.288Z,26.30
2022-08-11T05:51:54.772Z,26.40
2022-08-11T05:54:46.749Z,26.60
2022-08-11T05:57:49.953Z,26.40
2022-08-11T06:00:12.434Z,26.30
2022-08-11T06:02:48.991Z,26.10
2022-08-11T06:05:16.809Z,26.30
2022-08-11T06:07:49.065Z,26.30
2022-08-11T06:10:29.738Z,26.20
2022-08-11T06:13:00.986Z,26.30
2022-08-11T06:15:30.047Z,26.40
2022-08-11T06:17:59.250Z,26.10
2022-08-11T06:20:26.520Z,26.40
2022-08-11T06:23:02.248Z,26.10
2022-08-11T06:25:35.642Z,26.10
2022-08-11T06:28:07.117Z,26.40
2022-08-11T06:30:44.862Z,26.50
2022-08-11T06:33:30.166Z,26.50
2022-08-11T06:36:16.972Z,26.40
2022-08-11T06:39:23.198Z,26.40
2022-08-11T06:41:54.263Z,27.00
2022-08-11T06:44:32.426Z,26.50
2022-08-11T06:47:08.791Z,26.30
2022-08-11T06:49:58.060Z,26.50
2022-08-11T06:52:36.391Z,26.40
2022-08-11T06:55:56.231Z,26.40
2022-08-11T06:58:48.485Z,26.30
2022-08-11T07:01:21.455Z,26.20
2022-08-11T07:03:55.122Z,26.30
2022-08-11T07:07:07.459Z,26.10
2022-08-11T07:10:19.918Z,25.80
2022-08-11T07:13:09.212Z,26.30
2022-08-11T07:16:13.230Z,25.60
2022-08-11T07:19:00.628Z,25.50
2022-08-11T07:22:02.312Z,25.40
2022-08-11T07:24:59.100Z,25.20
2022-08-11T07:27:54.966Z,25.10
2022-08-11T07:30:22.214Z,25.00
2022-08-11T07:32:55.362Z,24.90
2022-08-11T07:35:38.559Z,25.00
2022-08-11T07:38:19.324Z,24.90
2022-08-11T07:40:49.862Z,24.50
2022-08-11T07:43:17.298Z,24.30
2022-08-11T07:46:04.367Z,24.10
2022-08-11T07:48:51.945Z,23.90
2022-08-11T07:51:39.030Z,23.90
2022-08-11T07:54:16.161Z,24.20
2022-08-11T07:56:54.944Z,23.70
2022-08-11T08:00:03.820Z,23.60
2022-08-11T08:02:51.393Z,23.60
2022-08-11T08:05:37.385Z,23.40
2022-08-11T08:08:24.295Z,23.20
2022-08-11T08:11:10.925Z,23.10
2022-08-11T08:13:56.561Z,22.00
2022-08-11T08:16:42.665Z,22.00
2022-08-11T08:19:14.974Z,21.70
2022-08-11T08:21:45.235Z,21.50
2022-08-11T08:24:13.099Z,22.00
2022-08-11T08:27:00.797Z,21.30
2022-08-11T08:29:50.243Z,21.40
2022-08-11T08:32:18.629Z,21.50
2022-08-11T08:34:46.571Z,21.30
2022-08-11T08:37:16.081Z,21.50
2022-08-11T08:40:02.171Z,21.00
2022-08-11T08:42:31.909Z,20.90
2022-08-11T08:45:11.664Z,20.40
2022-08-11T08:47:47.005Z,20.10
2022-08-11T08:50:21.343Z,20.10
2022-08-11T08:53:06.300Z,20.10
2022-08-11T08:55:33.971Z,19.50
2022-08-11T08:58:02.314Z,19.30
2022-08-11T09:00:40.964Z,19.10
2022-08-11T09:03:38.168Z,19.00
2022-08-11T09:05:56.249Z,18.70
2022-08-11T09:08:24.312Z,18.00
2022-08-11T09:11:14.046Z,17.70
2022-08-11T09:13:44.660Z,17.90
2022-08-11T09:16:12.181Z,17.20
2022-08-11T09:18:40.102Z,17.90
2022-08-11T09:21:07.610Z,17.20
2022-08-11T09:24:16.852Z,17.50
2022-08-11T09:27:07.459Z,17.40
2022-08-11T09:29:35.463Z,17.30
2022-08-11T09:32:02.861Z,16.80
2022-08-11T09:34:29.901Z,16.90
2022-08-11T09:37:19.576Z,16.80
2022-08-11T09:40:27.235Z,17.10
2022-08-11T09:43:14.222Z,16.40
2022-08-11T09:45:44.265Z,16.40
2022-08-11T09:48:12.382Z,15.70
2022-08-11T09:50:40.173Z,16.50
2022-08-11T09:53:36.456Z,15.80
2022-08-11T09:55:55.218Z,15.30
2022-08-11T09:58:41.820Z,14.60
2022-08-11T10:01:27.179Z,15.00
2022-08-11T10:04:24.326Z,14.80
2022-08-11T10:07:04.687Z,14.70
2022-08-11T10:09:52.128Z,14.30
2022-08-11T10:12:24.715Z,14.60
2022-08-11T10:15:22.086Z,14.40
2022-08-11T10:18:12.061Z,14.30
2022-08-11T10:20:39.604Z,14.20
2022-08-11T10:23:29.002Z,13.90
2022-08-11T10:26:15.413Z,13.50
2022-08-11T10:29:09.642Z,13.40
2022-08-11T10:31:57.498Z,13.70
2022-08-11T10:34:28.362Z,13.80
2022-08-11T10:36:56.325Z,13.60
2022-08-11T10:39:25.901Z,13.80
2022-08-11T10:42:21.048Z,13.40
2022-08-11T10:45:02.079Z,13.30
2022-08-11T10:47:35.106Z,13.40
2022-08-11T10:50:27.356Z,14.00
2022-08-11T10:53:14.739Z,12.40
2022-08-11T10:58:50.534Z,11.80
2022-08-11T11:01:26.552Z,11.90
2022-08-11T11:04:00.713Z,11.90
2022-08-11T11:06:36.341Z,12.40
2022-08-11T11:09:12.900Z,12.20
2022-08-11T11:12:03.507Z,12.20
2022-08-11T11:14:56.462Z,11.70
2022-08-11T11:18:01.703Z,12.10
2022-08-11T11:20:53.572Z,11.50
2022-08-11T11:23:39.701Z,11.40
2022-08-11T11:26:28.034Z,11.80
2022-08-11T11:29:03.697Z,11.20
2022-08-11T11:31:42.398Z,11.50
2022-08-11T11:34:33.394Z,10.90
2022-08-11T11:37:01.419Z,10.90
2022-08-11T11:39:31.367Z,11.30
2022-08-11T11:42:04.947Z,11.10
2022-08-11T11:44:32.837Z,10.60
2022-08-11T11:47:01.204Z,10.50
2022-08-11T11:49:29.928Z,10.60
2022-08-11T11:51:59.317Z,10.80
2022-08-11T11:54:33.830Z,11.10
2022-08-11T11:57:21.747Z,11.30
2022-08-11T12:00:11.619Z,11.40
2022-08-11T12:02:40.618Z,10.80
2022-08-11T12:05:09.591Z,11.50
2022-08-11T12:07:56.829Z,10.70
2022-08-11T12:10:38.455Z,11.20
2022-08-11T12:13:24.642Z,11.20
2022-08-11T12:16:23.770Z,10.90
2022-08-11T12:18:42.175Z,10.60
2022-08-11T12:21:10.593Z,10.10
2022-08-11T12:24:02.258Z,9.60
2022-08-11T12:26:40.362Z,9.70
2022-08-11T12:29:10.624Z,9.80
2022-08-11T12:31:39.325Z,9.60
2022-08-11T12:34:08.530Z,9.70
2022-08-11T12:37:13.774Z,9.50
2022-08-11T12:40:16.729Z,9.30
2022-08-11T12:43:21.246Z,9.50
2022-08-11T12:45:58.420Z,9.20
2022-08-11T12:48:58.487Z,9.30
2022-08-11T12:52:13.228Z,9.10
2022-08-11T12:54:51.479Z,10.00
2022-08-11T12:57:44.480Z,9.00
2022-08-11T13:00:30.604Z,8.90
2022-08-11T13:03:16.962Z,9.40
2022-08-11T13:05:46.172Z,9.00
2022-08-11T13:08:17.064Z,8.50
2022-08-11T13:11:03.126Z,8.30
2022-08-11T13:13:55.501Z,8.70
2022-08-11T13:16:18.760Z,8.60
2022-08-11T13:18:46.356Z,7.70
2022-08-11T13:21:20.597Z,7.80
2022-08-11T13:24:00.407Z,7.80
2022-08-11T13:26:47.226Z,7.50
2022-08-11T13:29:22.222Z,6.90
2022-08-11T13:31:49.873Z,6.50
2022-08-11T13:34:18.474Z,6.40
2022-08-11T13:36:52.226Z,6.50
2022-08-11T13:39:21.219Z,7.00
2022-08-11T13:41:52.423Z,6.60
2022-08-11T13:44:25.325Z,6.10
2022-08-11T13:47:01.695Z,5.80
2022-08-11T13:49:30.485Z,5.80
2022-08-11T13:51:58.554Z,5.50
2022-08-11T13:54:32.134Z,5.10
2022-08-11T13:57:08.180Z,5.20
2022-08-11T13:59:43.701Z,4.90
2022-08-11T14:02:29.064Z,5.00
2022-08-11T14:05:07.348Z,4.60
2022-08-11T14:07:50.710Z,4.00
2022-08-11T14:10:20.806Z,4.30
2022-08-11T14:13:15.998Z,4.60
2022-08-11T14:15:46.147Z,4.00
2022-08-11T14:18:31.052Z,3.80
2022-08-11T14:21:19.757Z,4.00
2022-08-11T14:23:50.339Z,3.90
2022-08-11T14:26:31.256Z,4.00
2022-08-11T14:29:02.801Z,4.80
2022-08-11T14:31:32.062Z,5.10
2022-08-11T14:34:03.029Z,5.20
2022-08-11T14:36:38.992Z,5.90
2022-08-11T14:39:18.497Z,6.30
2022-08-11T14:42:11.521Z,6.70
2022-08-11T14:45:22.742Z,6.90
2022-08-11T14:47:54.240Z,7.50
2022-08-11T14:50:26.847Z,7.40
2022-08-11T14:52:58.169Z,7.40
2022-08-11T14:55:48.308Z,7.50
2022-08-11T14:58:20.362Z,7.50
2022-08-11T15:00:50.343Z,7.90
2022-08-11T15:03:17.801Z,8.00
2022-08-11T15:05:57.461Z,7.90
2022-08-11T15:08:49.321Z,8.00
2022-08-11T15:11:36.885Z,8.00
2022-08-11T15:14:06.649Z,8.30
2022-08-11T15:16:52.442Z,8.20
2022-08-11T15:19:23.640Z,8.10
2022-08-11T15:22:10.222Z,8.40
2022-08-11T15:24:37.517Z,8.20
2022-08-11T15:27:35.051Z,8.30
2022-08-11T15:30:32.953Z,8.40
2022-08-11T15:33:25.577Z,8.30
2022-08-11T15:36:13.210Z,8.40
2022-08-11T15:39:02.256Z,8.40
2022-08-11T15:42:19.139Z,8.50
2022-08-11T15:45:09.760Z,8.80
2022-08-11T15:47:46.329Z,8.50
2022-08-11T15:50:19.666Z,8.40
2022-08-11T15:52:56.113Z,8.80
2022-08-11T15:55:23.893Z,8.60
2022-08-11T15:58:11.942Z,8.70
2022-08-11T16:01:04.333Z,8.80
2022-08-11T16:04:14.004Z,8.70
2022-08-11T16:06:49.931Z,8.70
2022-08-11T16:09:21.054Z,8.60
2022-08-11T16:11:49.453Z,8.70
2022-08-11T16:14:35.732Z,8.90
2022-08-11T16:17:05.779Z,8.80
2022-08-11T16:19:36.619Z,8.80
2022-08-11T16:22:08.097Z,9.20
2022-08-11T16:27:05.336Z,9.40
2022-08-11T16:27:34.048Z,9.40
2022-08-11T16:30:01.816Z,9.10
2022-08-11T16:32:31.291Z,9.50
2022-08-11T16:35:19.850Z,8.80
2022-08-11T16:38:06.158Z,8.90
2022-08-11T16:40:34.345Z,9.10
2022-08-11T16:43:22.331Z,9.00
2022-08-11T16:46:08.409Z,9.00
2022-08-11T16:48:38.830Z,9.00
2022-08-11T16:51:11.811Z,9.20
2022-08-11T16:53:50.135Z,9.30
2022-08-11T16:57:18.849Z,8.50
2022-08-11T16:59:52.731Z,9.00
2022-08-11T17:02:43.661Z,9.20
2022-08-11T17:05:38.499Z,8.90
2022-08-11T17:08:57.016Z,8.90
2022-08-11T17:11:46.602Z,8.70
2022-08-11T17:14:17.040Z,8.70
2022-08-11T17:16:49.111Z,9.40
2022-08-11T17:20:40.138Z,9.00
2022-08-11T17:22:39.247Z,9.00
2022-08-11T17:25:08.334Z,9.80
2022-08-11T17:27:37.356Z,9.40
2022-08-11T17:30:06.746Z,9.40
2022-08-11T17:33:00.828Z,9.60
2022-08-11T17:35:38.977Z,9.20
2022-08-11T17:38:17.843Z,9.40
2022-08-11T17:41:22.969Z,9.50
2022-08-11T17:44:10.851Z,9.70
2022-08-11T17:47:03.615Z,9.80
2022-08-11T17:49:37.562Z,9.90
2022-08-11T17:52:25.244Z,9.90
2022-08-11T17:55:13.746Z,10.10
2022-08-11T17:58:00.758Z,9.90
2022-08-11T18:00:28.136Z,10.20
2022-08-11T18:03:14.142Z,10.00
2022-08-11T18:05:46.327Z,10.10
2022-08-11T18:08:33.018Z,10.20
2022-08-11T18:12:06.467Z,10.40
2022-08-11T18:14:27.665Z,10.30
2022-08-11T18:17:13.455Z,10.40
2022-08-11T18:19:59.163Z,10.40
2022-08-11T18:22:49.669Z,10.80
2022-08-11T18:25:45.712Z,11.00
2022-08-11T18:28:35.413Z,11.10
2022-08-11T18:31:23.386Z,11.20
2022-08-11T18:34:16.192Z,11.10
2022-08-11T18:37:09.447Z,10.60
2022-08-11T18:40:12.092Z,10.90
2022-08-11T18:43:00.947Z,10.80
2022-08-11T18:45:46.740Z,10.90
2022-08-11T18:48:41.257Z,10.80
2022-08-11T18:51:31.005Z,10.80
2022-08-11T18:54:27.308Z,10.60
2022-08-11T18:57:15.020Z,10.80
2022-08-11T19:00:02.784Z,11.30
2022-08-11T19:02:50.661Z,11.70
2022-08-11T19:06:32.175Z,12.20
2022-08-11T19:08:53.811Z,11.90
2022-08-11T19:11:43.656Z,12.30
2022-08-11T19:14:31.264Z,12.40
2022-08-11T19:17:43.545Z,12.30
2022-08-11T19:20:29.758Z,12.60
2022-08-11T19:23:17.032Z,12.70
2022-08-11T19:26:04.270Z,13.00
2022-08-11T19:28:52.883Z,13.30
2022-08-11T19:31:44.334Z,13.70
2022-08-11T19:34:34.666Z,13.70
2022-08-11T19:37:25.290Z,13.60
2022-08-11T19:40:20.218Z,13.60
2022-08-11T19:43:18.539Z,13.70
2022-08-11T19:46:11.531Z,13.50
2022-08-11T19:48:57.632Z,13.30
2022-08-11T19:51:43.742Z,13.50
2022-08-11T19:54:29.403Z,13.40
2022-08-11T19:57:15.580Z,13.50
2022-08-11T20:00:02.115Z,13.80
2022-08-11T20:02:47.612Z,14.00
2022-08-11T20:05:32.903Z,14.00
2022-08-11T20:08:18.739Z,14.10
2022-08-11T20:11:06.103Z,14.20
2022-08-11T20:13:52.918Z,14.30
2022-08-11T20:16:40.895Z,14.30
2022-08-11T20:19:55.150Z,14.40
2022-08-11T20:22:35.188Z,14.50
2022-08-11T20:25:22.751Z,14.50
2022-08-11T20:28:10.758Z,14.60
2022-08-11T20:30:57.040Z,14.60
2022-08-11T20:33:44.048Z,14.80
2022-08-11T20:36:32.209Z,14.90
2022-08-11T20:39:19.993Z,15.10
2022-08-11T20:42:07.035Z,15.40
2022-08-11T20:44:55.225Z,15.40
2022-08-11T20:47:59.639Z,15.70
2022-08-11T20:50:47.670Z,16.00
2022-08-11T20:56:48.185Z,16.50
2022-08-11T20:59:52.864Z,16.80
2022-08-11T21:02:44.796Z,17.20
2022-08-11T21:06:10.508Z,17.00
2022-08-11T21:08:41.663Z,17.00
2022-08-11T21:11:28.697Z,17.30
2022-08-11T21:14:14.957Z,16.60
2022-08-11T21:17:25.971Z,16.30
2022-08-11T21:20:15.549Z,16.40
2022-08-11T21:23:27.355Z,16.30
2022-08-11T21:26:20.657Z,16.10
2022-08-11T21:29:07.372Z,16.30
2022-08-11T21:31:53.551Z,16.50
2022-08-11T21:34:41.426Z,16.50
2022-08-11T21:37:28.772Z,16.60
2022-08-11T21:40:17.906Z,16.70
2022-08-11T21:43:06.966Z,16.80
2022-08-11T21:45:55.578Z,16.80
2022-08-11T21:48:43.606Z,16.90
2022-08-11T21:51:29.118Z,17.10
2022-08-11T21:54:16.554Z,17.10
2022-08-11T21:57:02.334Z,17.40
2022-08-11T22:00:02.150Z,17.60
2022-08-11T22:02:53.521Z,17.90
2022-08-11T22:05:40.016Z,18.30
2022-08-11T22:08:26.694Z,18.60
2022-08-11T22:11:13.172Z,18.80
2022-08-11T22:14:06.176Z,19.10
2022-08-11T22:16:54.506Z,19.40
2022-08-11T22:19:42.401Z,19.60
2022-08-11T22:22:31.397Z,19.60
2022-08-11T22:25:18.797Z,19.50
2022-08-11T22:28:05.839Z,19.60
2022-08-11T22:30:51.589Z,19.30
2022-08-11T22:33:46.524Z,19.30
2022-08-11T22:36:45.663Z,19.30
2022-08-11T22:39:31.998Z,19.40
2022-08-11T22:42:21.627Z,19.50
2022-08-11T22:45:18.220Z,19.40
2022-08-11T22:48:07.375Z,19.40
2022-08-11T22:50:55.626Z,19.20
2022-08-11T22:53:57.536Z,18.80
2022-08-11T22:56:46.565Z,18.50
2022-08-11T22:59:32.962Z,18.40
2022-08-11T23:02:18.830Z,18.60
2022-08-11T23:05:05.062Z,18.40
2022-08-11T23:07:52.065Z,18.60
2022-08-11T23:10:39.800Z,19.00
2022-08-11T23:13:26.865Z,18.80
2022-08-11T23:16:15.233Z,19.20
2022-08-11T23:19:01.474Z,19.00
2022-08-11T23:21:48.083Z,18.90
2022-08-11T23:24:34.487Z,19.00
2022-08-11T23:27:21.585Z,19.10
2022-08-11T23:30:09.585Z,19.40
2022-08-11T23:32:55.854Z,19.40
2022-08-11T23:35:54.822Z,19.50
2022-08-11T23:38:43.761Z,19.50
2022-08-11T23:41:31.692Z,19.60
2022-08-11T23:44:18.688Z,19.40
2022-08-11T23:47:06.982Z,19.30
2022-08-11T23:49:55.998Z,19.40
2022-08-11T23:52:45.681Z,19.40
2022-08-11T23:55:31.686Z,19.50
2022-08-11T23:58:17.417Z,20.20
